sensor_id;sensor_type;location;lat;lon;timestamp;pressure;altitude;pressure_sealevel;temperature;humidity
55517;BME280;41724;51.176;-0.708;2022-07-04T00:01:42;101704.53;;;18.16;47.44
55517;BME280;41724;51.176;-0.708;2022-07-04T00:04:10;101707.72;;;18.02;47.52
55517;BME280;41724;51.176;-0.708;2022-07-04T00:06:37;101706.00;;;18.12;47.71
55517;BME280;41724;51.176;-0.708;2022-07-04T00:09:04;101710.87;;;17.85;48.30
55517;BME280;41724;51.176;-0.708;2022-07-04T00:11:31;101711.67;;;17.48;48.27
55517;BME280;41724;51.176;-0.708;2022-07-04T00:13:59;101709.67;;;17.48;48.04
55517;BME280;41724;51.176;-0.708;2022-07-04T00:16:26;101712.29;;;17.64;47.78
55517;BME280;41724;51.176;-0.708;2022-07-04T00:18:53;101712.25;;;17.58;47.93
55517;BME280;41724;51.176;-0.708;2022-07-04T00:21:21;101714.01;;;17.30;47.50
55517;BME280;41724;51.176;-0.708;2022-07-04T00:23:48;101711.47;;;17.36;47.87
55517;BME280;41724;51.176;-0.708;2022-07-04T00:26:16;101716.93;;;17.26;48.28
55517;BME280;41724;51.176;-0.708;2022-07-04T00:28:43;101716.94;;;17.08;47.97
55517;BME280;41724;51.176;-0.708;2022-07-04T00:31:10;101713.28;;;17.32;47.81
55517;BME280;41724;51.176;-0.708;2022-07-04T00:33:37;101720.07;;;17.42;47.45
55517;BME280;41724;51.176;-0.708;2022-07-04T00:36:05;101720.19;;;17.24;47.94
55517;BME280;41724;51.176;-0.708;2022-07-04T00:38:34;101713.41;;;17.07;48.01
55517;BME280;41724;51.176;-0.708;2022-07-04T00:41:01;101709.14;;;17.08;47.99
55517;BME280;41724;51.176;-0.708;2022-07-04T00:43:29;101708.73;;;16.74;47.99
55517;BME280;41724;51.176;-0.708;2022-07-04T00:45:57;101706.91;;;16.81;47.83
55517;BME280;41724;51.176;-0.708;2022-07-04T00:48:24;101707.75;;;17.10;47.66
55517;BME280;41724;51.176;-0.708;2022-07-04T00:50:52;101711.03;;;16.99;47.80
55517;BME280;41724;51.176;-0.708;2022-07-04T00:53:21;101712.85;;;17.05;47.56
55517;BME280;41724;51.176;-0.708;2022-07-04T00:55:50;101715.96;;;16.98;48.02
55517;BME280;41724;51.176;-0.708;2022-07-04T00:58:20;101714.66;;;16.89;48.52
55517;BME280;41724;51.176;-0.708;2022-07-04T01:00:48;101716.35;;;16.92;48.30
55517;BME280;41724;51.176;-0.708;2022-07-04T01:03:16;101717.76;;;16.94;48.32
55517;BME280;41724;51.176;-0.708;2022-07-04T01:05:44;101716.83;;;16.89;48.21
55517;BME280;41724;51.176;-0.708;2022-07-04T01:08:12;101715.11;;;16.68;48.35
55517;BME280;41724;51.176;-0.708;2022-07-04T01:10:40;101715.27;;;16.59;47.84
55517;BME280;41724;51.176;-0.708;2022-07-04T01:13:07;101710.97;;;16.62;47.40
55517;BME280;41724;51.176;-0.708;2022-07-04T01:15:35;101710.11;;;16.61;47.46
55517;BME280;41724;51.176;-0.708;2022-07-04T01:18:02;101710.38;;;16.47;47.86
55517;BME280;41724;51.176;-0.708;2022-07-04T01:20:35;101708.03;;;16.69;47.30
55517;BME280;41724;51.176;-0.708;2022-07-04T01:23:02;101705.58;;;16.33;47.63
55517;BME280;41724;51.176;-0.708;2022-07-04T01:25:30;101705.65;;;16.84;47.74
55517;BME280;41724;51.176;-0.708;2022-07-04T01:27:58;101708.80;;;16.59;47.62
55517;BME280;41724;51.176;-0.708;2022-07-04T01:30:25;101705.75;;;16.30;47.33
55517;BME280;41724;51.176;-0.708;2022-07-04T01:32:52;101704.11;;;16.47;47.65
55517;BME280;41724;51.176;-0.708;2022-07-04T01:35:20;101703.54;;;16.48;47.38
55517;BME280;41724;51.176;-0.708;2022-07-04T01:37:47;101698.25;;;16.24;47.92
55517;BME280;41724;51.176;-0.708;2022-07-04T01:40:14;101695.18;;;16.17;47.70
55517;BME280;41724;51.176;-0.708;2022-07-04T01:42:42;101691.21;;;16.34;47.85
55517;BME280;41724;51.176;-0.708;2022-07-04T01:45:10;101690.46;;;16.42;48.17
55517;BME280;41724;51.176;-0.708;2022-07-04T01:47:39;101690.92;;;16.03;48.06
55517;BME280;41724;51.176;-0.708;2022-07-04T01:50:13;101687.56;;;16.03;48.03
55517;BME280;41724;51.176;-0.708;2022-07-04T01:52:41;101686.33;;;15.85;48.26
55517;BME280;41724;51.176;-0.708;2022-07-04T01:55:09;101684.17;;;15.94;48.17
55517;BME280;41724;51.176;-0.708;2022-07-04T01:57:37;101686.88;;;15.89;48.38
55517;BME280;41724;51.176;-0.708;2022-07-04T02:00:06;101690.36;;;15.80;49.00
55517;BME280;41724;51.176;-0.708;2022-07-04T02:02:34;101687.77;;;15.75;48.60
55517;BME280;41724;51.176;-0.708;2022-07-04T02:05:01;101683.75;;;15.76;47.96
55517;BME280;41724;51.176;-0.708;2022-07-04T02:07:28;101680.24;;;15.73;48.04
55517;BME280;41724;51.176;-0.708;2022-07-04T02:09:56;101677.06;;;15.41;48.09
55517;BME280;41724;51.176;-0.708;2022-07-04T02:12:23;101680.53;;;15.86;47.69
55517;BME280;41724;51.176;-0.708;2022-07-04T02:14:50;101678.88;;;15.56;47.66
55517;BME280;41724;51.176;-0.708;2022-07-04T02:17:18;101677.62;;;15.45;47.87
55517;BME280;41724;51.176;-0.708;2022-07-04T02:19:45;101678.07;;;15.49;47.72
55517;BME280;41724;51.176;-0.708;2022-07-04T02:22:13;101674.68;;;15.17;47.75
55517;BME280;41724;51.176;-0.708;2022-07-04T02:24:40;101676.75;;;15.32;47.75
55517;BME280;41724;51.176;-0.708;2022-07-04T02:27:07;101678.03;;;15.18;47.46
55517;BME280;41724;51.176;-0.708;2022-07-04T02:29:35;101676.49;;;15.09;47.15
55517;BME280;41724;51.176;-0.708;2022-07-04T02:32:02;101677.86;;;15.20;47.40
55517;BME280;41724;51.176;-0.708;2022-07-04T02:34:29;101684.51;;;15.07;47.58
55517;BME280;41724;51.176;-0.708;2022-07-04T02:36:56;101681.41;;;15.41;47.29
55517;BME280;41724;51.176;-0.708;2022-07-04T02:39:24;101687.77;;;14.99;47.48
55517;BME280;41724;51.176;-0.708;2022-07-04T02:41:51;101685.99;;;14.80;47.75
55517;BME280;41724;51.176;-0.708;2022-07-04T02:44:18;101686.39;;;14.85;47.39
55517;BME280;41724;51.176;-0.708;2022-07-04T02:46:46;101686.46;;;14.82;47.27
55517;BME280;41724;51.176;-0.708;2022-07-04T02:49:13;101689.82;;;14.63;47.56
55517;BME280;41724;51.176;-0.708;2022-07-04T02:51:41;101692.07;;;14.75;47.54
55517;BME280;41724;51.176;-0.708;2022-07-04T02:54:08;101690.78;;;14.57;47.45
55517;BME280;41724;51.176;-0.708;2022-07-04T02:56:35;101684.82;;;14.71;47.00
55517;BME280;41724;51.176;-0.708;2022-07-04T02:59:03;101686.37;;;14.68;47.18
55517;BME280;41724;51.176;-0.708;2022-07-04T03:01:31;101693.27;;;14.33;47.23
55517;BME280;41724;51.176;-0.708;2022-07-04T03:03:58;101696.77;;;14.37;47.29
55517;BME280;41724;51.176;-0.708;2022-07-04T03:06:26;101700.20;;;14.51;46.94
55517;BME280;41724;51.176;-0.708;2022-07-04T03:08:53;101699.62;;;14.41;47.16
55517;BME280;41724;51.176;-0.708;2022-07-04T03:11:20;101699.20;;;14.68;46.75
55517;BME280;41724;51.176;-0.708;2022-07-04T03:13:48;101697.54;;;14.39;46.75
55517;BME280;41724;51.176;-0.708;2022-07-04T03:16:15;101694.38;;;14.25;46.81
55517;BME280;41724;51.176;-0.708;2022-07-04T03:18:43;101688.77;;;14.28;46.50
55517;BME280;41724;51.176;-0.708;2022-07-04T03:21:10;101689.08;;;14.59;46.97
55517;BME280;41724;51.176;-0.708;2022-07-04T03:23:37;101690.07;;;14.18;47.02
55517;BME280;41724;51.176;-0.708;2022-07-04T03:26:07;101696.35;;;14.13;47.19
55517;BME280;41724;51.176;-0.708;2022-07-04T03:28:34;101699.15;;;14.68;46.50
55517;BME280;41724;51.176;-0.708;2022-07-04T03:31:01;101698.67;;;14.13;46.70
55517;BME280;41724;51.176;-0.708;2022-07-04T03:33:28;101694.42;;;14.07;46.71
55517;BME280;41724;51.176;-0.708;2022-07-04T03:35:56;101695.95;;;14.59;46.38
55517;BME280;41724;51.176;-0.708;2022-07-04T03:38:23;101695.51;;;14.11;47.23
55517;BME280;41724;51.176;-0.708;2022-07-04T03:40:50;101689.25;;;14.18;47.04
55517;BME280;41724;51.176;-0.708;2022-07-04T03:43:18;101683.50;;;13.91;47.16
55517;BME280;41724;51.176;-0.708;2022-07-04T03:45:45;101684.12;;;13.90;47.22
55517;BME280;41724;51.176;-0.708;2022-07-04T03:48:12;101688.43;;;14.10;47.21
55517;BME280;41724;51.176;-0.708;2022-07-04T03:50:40;101699.72;;;14.25;47.01
55517;BME280;41724;51.176;-0.708;2022-07-04T03:53:07;101702.03;;;13.71;47.24
55517;BME280;41724;51.176;-0.708;2022-07-04T03:55:35;101707.58;;;13.99;47.29
55517;BME280;41724;51.176;-0.708;2022-07-04T03:58:02;101709.38;;;14.01;47.05
55517;BME280;41724;51.176;-0.708;2022-07-04T04:00:29;101711.37;;;14.26;47.52
55517;BME280;41724;51.176;-0.708;2022-07-04T04:02:57;101720.45;;;13.66;47.02
55517;BME280;41724;51.176;-0.708;2022-07-04T04:05:24;101727.04;;;13.68;47.38
55517;BME280;41724;51.176;-0.708;2022-07-04T04:07:52;101729.51;;;14.03;46.87
55517;BME280;41724;51.176;-0.708;2022-07-04T04:10:20;101727.60;;;14.30;47.02
55517;BME280;41724;51.176;-0.708;2022-07-04T04:12:47;101727.09;;;13.76;47.21
55517;BME280;41724;51.176;-0.708;2022-07-04T04:15:14;101726.69;;;13.79;47.59
55517;BME280;41724;51.176;-0.708;2022-07-04T04:17:42;101725.02;;;13.70;47.44
55517;BME280;41724;51.176;-0.708;2022-07-04T04:20:10;101727.18;;;13.96;47.33
55517;BME280;41724;51.176;-0.708;2022-07-04T04:22:37;101727.84;;;13.74;47.25
55517;BME280;41724;51.176;-0.708;2022-07-04T04:25:05;101719.47;;;13.90;47.02
55517;BME280;41724;51.176;-0.708;2022-07-04T04:27:32;101735.48;;;13.94;47.44
55517;BME280;41724;51.176;-0.708;2022-07-04T04:30:00;101747.80;;;13.72;47.66
55517;BME280;41724;51.176;-0.708;2022-07-04T04:32:27;101752.47;;;13.89;47.29
55517;BME280;41724;51.176;-0.708;2022-07-04T04:34:54;101753.44;;;13.84;47.47
55517;BME280;41724;51.176;-0.708;2022-07-04T04:37:22;101754.13;;;13.74;47.70
55517;BME280;41724;51.176;-0.708;2022-07-04T04:39:49;101751.17;;;13.77;47.92
55517;BME280;41724;51.176;-0.708;2022-07-04T04:42:17;101746.78;;;13.69;48.31
55517;BME280;41724;51.176;-0.708;2022-07-04T04:44:44;101749.67;;;13.79;47.99
55517;BME280;41724;51.176;-0.708;2022-07-04T04:47:11;101748.80;;;14.00;47.89
55517;BME280;41724;51.176;-0.708;2022-07-04T04:49:39;101745.96;;;13.92;48.38
55517;BME280;41724;51.176;-0.708;2022-07-04T04:52:06;101747.26;;;14.00;48.52
55517;BME280;41724;51.176;-0.708;2022-07-04T04:54:34;101744.75;;;14.04;48.65
55517;BME280;41724;51.176;-0.708;2022-07-04T04:57:01;101743.18;;;14.41;48.51
55517;BME280;41724;51.176;-0.708;2022-07-04T04:59:29;101747.73;;;14.32;48.34
55517;BME280;41724;51.176;-0.708;2022-07-04T05:01:57;101750.61;;;14.31;48.71
55517;BME280;41724;51.176;-0.708;2022-07-04T05:04:24;101752.64;;;14.31;48.81
55517;BME280;41724;51.176;-0.708;2022-07-04T05:06:51;101753.29;;;14.33;48.76
55517;BME280;41724;51.176;-0.708;2022-07-04T05:09:19;101755.46;;;14.39;48.85
55517;BME280;41724;51.176;-0.708;2022-07-04T05:11:46;101754.77;;;14.68;48.92
55517;BME280;41724;51.176;-0.708;2022-07-04T05:14:13;101756.81;;;14.51;49.10
55517;BME280;41724;51.176;-0.708;2022-07-04T05:16:41;101760.14;;;14.59;49.20
55517;BME280;41724;51.176;-0.708;2022-07-04T05:19:08;101758.06;;;14.45;48.96
55517;BME280;41724;51.176;-0.708;2022-07-04T05:21:35;101755.25;;;14.89;48.91
55517;BME280;41724;51.176;-0.708;2022-07-04T05:24:03;101756.03;;;14.75;48.87
55517;BME280;41724;51.176;-0.708;2022-07-04T05:26:30;101751.64;;;14.92;49.03
55517;BME280;41724;51.176;-0.708;2022-07-04T05:28:57;101752.40;;;14.99;49.21
55517;BME280;41724;51.176;-0.708;2022-07-04T05:31:25;101753.33;;;15.03;49.26
55517;BME280;41724;51.176;-0.708;2022-07-04T05:33:53;101757.74;;;14.93;49.94
55517;BME280;41724;51.176;-0.708;2022-07-04T05:36:20;101755.69;;;15.17;49.83
55517;BME280;41724;51.176;-0.708;2022-07-04T05:38:47;101757.20;;;15.24;50.28
55517;BME280;41724;51.176;-0.708;2022-07-04T05:41:14;101755.15;;;15.51;49.97
55517;BME280;41724;51.176;-0.708;2022-07-04T05:43:42;101759.29;;;15.30;49.96
55517;BME280;41724;51.176;-0.708;2022-07-04T05:46:09;101757.25;;;15.63;49.70
55517;BME280;41724;51.176;-0.708;2022-07-04T05:48:36;101753.65;;;15.79;49.79
55517;BME280;41724;51.176;-0.708;2022-07-04T05:51:04;101754.75;;;15.78;49.50
55517;BME280;41724;51.176;-0.708;2022-07-04T05:53:31;101748.97;;;15.69;49.70
55517;BME280;41724;51.176;-0.708;2022-07-04T05:55:58;101746.77;;;15.84;49.88
55517;BME280;41724;51.176;-0.708;2022-07-04T05:58:26;101747.36;;;15.88;50.20
55517;BME280;41724;51.176;-0.708;2022-07-04T06:00:53;101741.41;;;15.80;50.46
55517;BME280;41724;51.176;-0.708;2022-07-04T06:03:20;101741.87;;;15.86;50.32
55517;BME280;41724;51.176;-0.708;2022-07-04T06:05:48;101747.32;;;16.05;50.41
55517;BME280;41724;51.176;-0.708;2022-07-04T06:08:15;101747.60;;;15.89;50.55
55517;BME280;41724;51.176;-0.708;2022-07-04T06:10:43;101750.59;;;16.04;50.99
55517;BME280;41724;51.176;-0.708;2022-07-04T06:13:10;101749.77;;;16.20;51.00
55517;BME280;41724;51.176;-0.708;2022-07-04T06:15:38;101753.39;;;16.31;51.29
55517;BME280;41724;51.176;-0.708;2022-07-04T06:18:04;101753.43;;;16.29;50.86
55517;BME280;41724;51.176;-0.708;2022-07-04T06:20:32;101760.12;;;16.46;50.84
55517;BME280;41724;51.176;-0.708;2022-07-04T06:22:59;101758.36;;;16.70;50.47
55517;BME280;41724;51.176;-0.708;2022-07-04T06:25:26;101754.88;;;16.81;50.40
55517;BME280;41724;51.176;-0.708;2022-07-04T06:27:54;101752.79;;;16.67;50.68
55517;BME280;41724;51.176;-0.708;2022-07-04T06:30:21;101746.08;;;16.72;50.73
55517;BME280;41724;51.176;-0.708;2022-07-04T06:32:50;101745.84;;;17.14;50.19
55517;BME280;41724;51.176;-0.708;2022-07-04T06:35:20;101742.27;;;17.10;50.65
55517;BME280;41724;51.176;-0.708;2022-07-04T06:37:47;101743.97;;;16.76;50.41
55517;BME280;41724;51.176;-0.708;2022-07-04T06:40:14;101735.58;;;16.88;50.36
55517;BME280;41724;51.176;-0.708;2022-07-04T06:42:42;101732.33;;;17.24;50.17
55517;BME280;41724;51.176;-0.708;2022-07-04T06:45:10;101724.63;;;16.52;50.59
55517;BME280;41724;51.176;-0.708;2022-07-04T06:47:36;101728.19;;;17.29;50.67
55517;BME280;41724;51.176;-0.708;2022-07-04T06:50:04;101727.48;;;16.93;50.08
55517;BME280;41724;51.176;-0.708;2022-07-04T06:52:32;101732.32;;;16.97;50.44
55517;BME280;41724;51.176;-0.708;2022-07-04T06:54:59;101733.27;;;17.25;50.03
55517;BME280;41724;51.176;-0.708;2022-07-04T06:57:27;101730.02;;;17.26;51.01
55517;BME280;41724;51.176;-0.708;2022-07-04T06:59:54;101734.49;;;17.40;49.74
55517;BME280;41724;51.176;-0.708;2022-07-04T07:02:21;101728.59;;;17.93;48.81
55517;BME280;41724;51.176;-0.708;2022-07-04T07:04:49;101732.09;;;17.67;48.61
55517;BME280;41724;51.176;-0.708;2022-07-04T07:07:16;101731.81;;;17.81;47.62
55517;BME280;41724;51.176;-0.708;2022-07-04T07:09:43;101729.66;;;18.00;47.05
55517;BME280;41724;51.176;-0.708;2022-07-04T07:12:11;101732.10;;;18.33;46.89
55517;BME280;41724;51.176;-0.708;2022-07-04T07:14:38;101725.26;;;18.05;47.16
55517;BME280;41724;51.176;-0.708;2022-07-04T07:17:05;101730.40;;;18.44;46.36
55517;BME280;41724;51.176;-0.708;2022-07-04T07:19:32;101731.21;;;18.74;45.58
55517;BME280;41724;51.176;-0.708;2022-07-04T07:22:00;101735.12;;;18.58;45.37
55517;BME280;41724;51.176;-0.708;2022-07-04T07:24:27;101730.38;;;18.55;45.00
55517;BME280;41724;51.176;-0.708;2022-07-04T07:26:54;101725.09;;;19.21;44.48
55517;BME280;41724;51.176;-0.708;2022-07-04T07:29:22;101723.32;;;18.49;44.30
55517;BME280;41724;51.176;-0.708;2022-07-04T07:31:49;101725.52;;;18.63;44.25
55517;BME280;41724;51.176;-0.708;2022-07-04T07:34:16;101724.07;;;19.03;43.92
55517;BME280;41724;51.176;-0.708;2022-07-04T07:36:43;101726.91;;;18.97;43.86
55517;BME280;41724;51.176;-0.708;2022-07-04T07:39:11;101728.41;;;19.38;43.21
55517;BME280;41724;51.176;-0.708;2022-07-04T07:41:38;101732.11;;;19.93;42.39
55517;BME280;41724;51.176;-0.708;2022-07-04T07:44:05;101731.34;;;19.59;42.87
55517;BME280;41724;51.176;-0.708;2022-07-04T07:46:33;101730.19;;;19.83;42.69
55517;BME280;41724;51.176;-0.708;2022-07-04T07:49:00;101722.96;;;19.92;42.20
55517;BME280;41724;51.176;-0.708;2022-07-04T07:51:27;101729.51;;;19.92;41.43
55517;BME280;41724;51.176;-0.708;2022-07-04T07:53:55;101731.90;;;18.62;42.30
55517;BME280;41724;51.176;-0.708;2022-07-04T07:56:22;101731.66;;;19.38;40.83
55517;BME280;41724;51.176;-0.708;2022-07-04T07:58:49;101732.28;;;19.17;40.36
55517;BME280;41724;51.176;-0.708;2022-07-04T08:01:17;101733.17;;;19.24;41.83
55517;BME280;41724;51.176;-0.708;2022-07-04T08:03:43;101737.38;;;18.22;41.36
55517;BME280;41724;51.176;-0.708;2022-07-04T08:06:11;101736.34;;;18.68;41.07
55517;BME280;41724;51.176;-0.708;2022-07-04T08:08:39;101735.60;;;18.34;41.09
55517;BME280;41724;51.176;-0.708;2022-07-04T08:11:07;101738.94;;;18.93;40.73
55517;BME280;41724;51.176;-0.708;2022-07-04T08:13:35;101735.41;;;19.34;39.99
55517;BME280;41724;51.176;-0.708;2022-07-04T08:16:02;101730.31;;;19.15;39.99
55517;BME280;41724;51.176;-0.708;2022-07-04T08:18:29;101730.17;;;19.05;40.14
55517;BME280;41724;51.176;-0.708;2022-07-04T08:20:56;101733.25;;;18.84;40.33
55517;BME280;41724;51.176;-0.708;2022-07-04T08:23:24;101732.96;;;19.19;40.50
55517;BME280;41724;51.176;-0.708;2022-07-04T08:25:52;101729.60;;;19.25;39.35
55517;BME280;41724;51.176;-0.708;2022-07-04T08:28:19;101734.10;;;19.00;39.00
55517;BME280;41724;51.176;-0.708;2022-07-04T08:30:46;101731.65;;;18.76;38.33
55517;BME280;41724;51.176;-0.708;2022-07-04T08:33:14;101736.67;;;18.63;39.10
55517;BME280;41724;51.176;-0.708;2022-07-04T08:35:41;101740.17;;;19.85;38.17
55517;BME280;41724;51.176;-0.708;2022-07-04T08:38:08;101736.65;;;20.04;38.07
55517;BME280;41724;51.176;-0.708;2022-07-04T08:40:36;101737.04;;;19.98;36.98
55517;BME280;41724;51.176;-0.708;2022-07-04T08:43:03;101738.46;;;20.05;37.26
55517;BME280;41724;51.176;-0.708;2022-07-04T08:45:32;101742.01;;;19.90;36.20
55517;BME280;41724;51.176;-0.708;2022-07-04T08:48:02;101739.87;;;20.36;36.30
55517;BME280;41724;51.176;-0.708;2022-07-04T08:50:31;101744.74;;;19.87;37.80
55517;BME280;41724;51.176;-0.708;2022-07-04T08:53:00;101740.87;;;19.28;38.72
55517;BME280;41724;51.176;-0.708;2022-07-04T08:55:29;101740.05;;;19.43;38.01
55517;BME280;41724;51.176;-0.708;2022-07-04T08:57:58;101732.44;;;19.11;38.37
55517;BME280;41724;51.176;-0.708;2022-07-04T09:00:25;101724.66;;;19.04;38.83
55517;BME280;41724;51.176;-0.708;2022-07-04T09:02:52;101718.69;;;19.46;38.28
55517;BME280;41724;51.176;-0.708;2022-07-04T09:05:20;101725.43;;;19.34;38.83
55517;BME280;41724;51.176;-0.708;2022-07-04T09:07:47;101719.44;;;19.02;39.07
55517;BME280;41724;51.176;-0.708;2022-07-04T09:10:15;101723.66;;;18.97;41.18
55517;BME280;41724;51.176;-0.708;2022-07-04T09:12:43;101717.59;;;18.68;40.86
55517;BME280;41724;51.176;-0.708;2022-07-04T09:15:10;101712.06;;;18.85;40.32
55517;BME280;41724;51.176;-0.708;2022-07-04T09:17:37;101712.33;;;19.21;38.99
55517;BME280;41724;51.176;-0.708;2022-07-04T09:20:22;101708.80;;;19.97;39.31
55517;BME280;41724;51.176;-0.708;2022-07-04T09:22:52;101709.37;;;19.98;37.51
55517;BME280;41724;51.176;-0.708;2022-07-04T09:25:20;101723.39;;;19.70;38.56
55517;BME280;41724;51.176;-0.708;2022-07-04T09:27:50;101717.97;;;18.49;40.99
55517;BME280;41724;51.176;-0.708;2022-07-04T09:30:19;101713.14;;;19.79;38.19
55517;BME280;41724;51.176;-0.708;2022-07-04T09:32:49;101707.36;;;19.96;39.54
55517;BME280;41724;51.176;-0.708;2022-07-04T09:35:18;101713.24;;;20.53;39.14
55517;BME280;41724;51.176;-0.708;2022-07-04T09:37:48;101718.63;;;20.23;37.88
55517;BME280;41724;51.176;-0.708;2022-07-04T09:40:25;101713.39;;;20.54;37.56
55517;BME280;41724;51.176;-0.708;2022-07-04T09:42:54;101710.44;;;20.95;35.64
55517;BME280;41724;51.176;-0.708;2022-07-04T09:45:21;101711.88;;;20.55;37.08
55517;BME280;41724;51.176;-0.708;2022-07-04T09:47:48;101709.95;;;21.35;36.28
55517;BME280;41724;51.176;-0.708;2022-07-04T09:50:17;101710.88;;;21.25;36.79
55517;BME280;41724;51.176;-0.708;2022-07-04T09:52:47;101710.36;;;20.93;39.20
55517;BME280;41724;51.176;-0.708;2022-07-04T09:55:22;101718.13;;;19.34;41.91
55517;BME280;41724;51.176;-0.708;2022-07-04T09:57:50;101723.41;;;19.39;42.70
55517;BME280;41724;51.176;-0.708;2022-07-04T10:00:20;101725.92;;;19.01;42.02
55517;BME280;41724;51.176;-0.708;2022-07-04T10:02:48;101720.03;;;19.60;41.26
55517;BME280;41724;51.176;-0.708;2022-07-04T10:05:25;101713.07;;;19.45;40.75
55517;BME280;41724;51.176;-0.708;2022-07-04T10:07:54;101709.11;;;20.10;39.89
55517;BME280;41724;51.176;-0.708;2022-07-04T10:10:25;101706.48;;;20.99;39.15
55517;BME280;41724;51.176;-0.708;2022-07-04T10:12:55;101701.80;;;20.94;38.59
55517;BME280;41724;51.176;-0.708;2022-07-04T10:15:23;101702.06;;;20.31;38.93
55517;BME280;41724;51.176;-0.708;2022-07-04T10:17:51;101708.10;;;19.32;40.89
55517;BME280;41724;51.176;-0.708;2022-07-04T10:20:18;101699.02;;;20.29;40.33
55517;BME280;41724;51.176;-0.708;2022-07-04T10:22:46;101692.54;;;20.42;40.59
55517;BME280;41724;51.176;-0.708;2022-07-04T10:25:14;101700.07;;;20.30;40.16
55517;BME280;41724;51.176;-0.708;2022-07-04T10:27:41;101694.16;;;20.13;40.82
55517;BME280;41724;51.176;-0.708;2022-07-04T10:30:13;101695.99;;;20.22;39.92
55517;BME280;41724;51.176;-0.708;2022-07-04T10:32:41;101695.70;;;21.19;39.11
55517;BME280;41724;51.176;-0.708;2022-07-04T10:35:12;101700.84;;;21.32;37.71
55517;BME280;41724;51.176;-0.708;2022-07-04T10:38:12;101702.89;;;21.58;37.54
55517;BME280;41724;51.176;-0.708;2022-07-04T10:40:40;101696.33;;;21.62;37.43
55517;BME280;41724;51.176;-0.708;2022-07-04T10:44:21;101696.60;;;21.42;38.42
55517;BME280;41724;51.176;-0.708;2022-07-04T10:46:49;101706.41;;;21.58;37.49
55517;BME280;41724;51.176;-0.708;2022-07-04T10:49:19;101698.52;;;21.81;36.57
55517;BME280;41724;51.176;-0.708;2022-07-04T10:51:48;101704.95;;;21.96;36.44
55517;BME280;41724;51.176;-0.708;2022-07-04T10:54:17;101694.05;;;22.19;36.18
55517;BME280;41724;51.176;-0.708;2022-07-04T10:56:48;101690.74;;;22.78;34.47
55517;BME280;41724;51.176;-0.708;2022-07-04T10:59:19;101691.13;;;21.97;35.51
55517;BME280;41724;51.176;-0.708;2022-07-04T11:01:48;101678.95;;;22.66;34.34
55517;BME280;41724;51.176;-0.708;2022-07-04T11:04:53;101688.07;;;22.06;36.28
55517;BME280;41724;51.176;-0.708;2022-07-04T11:07:22;101690.03;;;22.59;35.23
55517;BME280;41724;51.176;-0.708;2022-07-04T11:10:22;101689.92;;;22.65;35.49
55517;BME280;41724;51.176;-0.708;2022-07-04T11:13:28;101686.09;;;22.51;35.09
55517;BME280;41724;51.176;-0.708;2022-07-04T11:16:04;101689.64;;;21.75;36.05
55517;BME280;41724;51.176;-0.708;2022-07-04T11:18:44;101686.13;;;22.33;35.81
55517;BME280;41724;51.176;-0.708;2022-07-04T11:21:21;101681.00;;;21.82;36.80
55517;BME280;41724;51.176;-0.708;2022-07-04T11:23:50;101680.88;;;21.51;37.47
55517;BME280;41724;51.176;-0.708;2022-07-04T11:26:19;101681.60;;;21.65;37.09
55517;BME280;41724;51.176;-0.708;2022-07-04T11:28:46;101681.67;;;21.44;36.74
55517;BME280;41724;51.176;-0.708;2022-07-04T11:31:14;101677.57;;;22.51;34.95
55517;BME280;41724;51.176;-0.708;2022-07-04T11:33:43;101675.94;;;22.12;36.24
55517;BME280;41724;51.176;-0.708;2022-07-04T11:36:12;101668.74;;;21.86;34.74
55517;BME280;41724;51.176;-0.708;2022-07-04T11:38:44;101668.72;;;22.03;36.43
55517;BME280;41724;51.176;-0.708;2022-07-04T11:41:12;101675.71;;;22.09;35.49
55517;BME280;41724;51.176;-0.708;2022-07-04T11:43:39;101673.77;;;23.09;33.88
55517;BME280;41724;51.176;-0.708;2022-07-04T11:46:10;101670.33;;;23.32;32.76
55517;BME280;41724;51.176;-0.708;2022-07-04T11:48:37;101686.83;;;22.78;34.07
55517;BME280;41724;51.176;-0.708;2022-07-04T11:51:16;101670.85;;;22.82;33.82
55517;BME280;41724;51.176;-0.708;2022-07-04T11:53:43;101672.18;;;23.05;33.73
55517;BME280;41724;51.176;-0.708;2022-07-04T11:56:10;101670.16;;;23.35;32.48
55517;BME280;41724;51.176;-0.708;2022-07-04T11:58:39;101673.57;;;22.95;33.72
55517;BME280;41724;51.176;-0.708;2022-07-04T12:01:07;101664.92;;;23.14;33.03
55517;BME280;41724;51.176;-0.708;2022-07-04T12:03:35;101664.83;;;24.14;31.82
55517;BME280;41724;51.176;-0.708;2022-07-04T12:06:03;101676.37;;;23.96;32.02
55517;BME280;41724;51.176;-0.708;2022-07-04T12:08:30;101667.66;;;24.66;33.16
55517;BME280;41724;51.176;-0.708;2022-07-04T12:10:58;101674.83;;;24.80;32.56
55517;BME280;41724;51.176;-0.708;2022-07-04T12:13:25;101667.43;;;24.52;33.36
55517;BME280;41724;51.176;-0.708;2022-07-04T12:15:52;101669.97;;;24.23;32.69
55517;BME280;41724;51.176;-0.708;2022-07-04T12:18:20;101670.77;;;23.97;33.85
55517;BME280;41724;51.176;-0.708;2022-07-04T12:20:50;101676.21;;;22.94;34.02
55517;BME280;41724;51.176;-0.708;2022-07-04T12:23:18;101674.56;;;24.12;33.09
55517;BME280;41724;51.176;-0.708;2022-07-04T12:25:47;101672.62;;;23.77;33.14
55517;BME280;41724;51.176;-0.708;2022-07-04T12:28:16;101661.27;;;24.86;32.26
55517;BME280;41724;51.176;-0.708;2022-07-04T12:30:50;101665.35;;;25.32;31.74
55517;BME280;41724;51.176;-0.708;2022-07-04T12:33:19;101661.12;;;25.87;30.75
55517;BME280;41724;51.176;-0.708;2022-07-04T12:35:48;101664.24;;;24.78;29.74
55517;BME280;41724;51.176;-0.708;2022-07-04T12:38:17;101666.61;;;25.39;29.89
55517;BME280;41724;51.176;-0.708;2022-07-04T12:40:55;101663.57;;;25.07;29.65
55517;BME280;41724;51.176;-0.708;2022-07-04T12:43:23;101669.10;;;23.42;32.29
55517;BME280;41724;51.176;-0.708;2022-07-04T12:45:53;101672.67;;;24.11;32.81
55517;BME280;41724;51.176;-0.708;2022-07-04T12:48:24;101669.62;;;24.31;32.81